Adelaide, California
Current Conditions -  °F | °C
As of 10:53 PM on Friday 24 Oct 2014 (Local Time) from KPRB Reporting Station
Clear Clear  
Wind Chill: 55°   Ceiling: Unl
Heat Index: 55°   Visibility: 10mi
Dew Point: 50°   Wind: 6mph
Humidity: 83%   Direction: 140°SE
Pressure: 30.01"   Gusts: NA
Location:  35.6618°N, 120.707°W
Report Text: KPRB 250553Z AUTO 14005KT 10SM CLR 13/10 A3001 RMK AO2 SLP157 T01280100 10250 20128 51014 TSNO
Loading
Personal Weather Stations






























Interactive Weather Map New forecast layout! Learn more

10-Day Weather Forecast

Advertisements
Track Severe Weather on mobile